ROMMA est une association bénévole à but non lucratif. Votre soutien est indispensable : ADHERER à ROMMA ou FAIRE un DON

Saint-Vallier-de-Thiey - (06, Alpes-Maritimes)

Côte-d'Azur (723 m)   Longitude: 06° 50' 21" E   Latitude: 43° 42' 8" N Station partenaire n°150
 

Détail journalier du     <<     >>

Température Precipitation Humidité Pression Vent Dir Rafale Dir. rafale
Heure (°C) (mm) (%) (hPa) (km/h) (km/h)
01:00 11.208010192N5N
02:00 11.008110192N6N
03:00 10.908310192N5N
04:00 10.808210192N6N
05:00 10.208310192N6N
06:00 9.708610193N6N
07:00 9.908610192N6N
08:00 10.208510182N6N
09:00 13.8077101903N
10:00 16.706810191N8SSE
11:00 16.906910192SSE10S
12:00 18.306310193S13SSO
13:00 19.706210184SO15SO
14:00 18.607010184SSO16SO
15:00 17.607510173SSO13SO
16:00 17.807510172SSO8SSO
17:00 18.806310163SSO18O
18:00 19.206010156OSO27O
19:00 18.705010146SSO37S
20:00 18.9038101415SO47SO
21:00 18.3036101413SO42SSO
22:00 17.803310159SSE39SO
23:00 18.102310156NO32SO
minuit 16.403110154NO13NNE

Graphique du 09-10-2019

 

Serveur OMMA